Terminal Aerodrome Forecast
Issued by NWS

Home | Current Version | Previous Version | Text Only | Print | Product List | Glossary On
Versions: 1 2 3 4 5 6 7 8 9 10 11 12 13 14 15 16 17 18
000
FTUS46 KEKA 302005 AAA
TAFCEC
TAF AMD
KCEC 302005Z 3020/3118 19009KT P6SM BKN012 BKN025 OVC035
     FM302300 22007KT P6SM SCT012 BKN025 BKN060
     FM310100 31006KT P6SM SCT012 SCT060
     FM310600 15004KT 6SM BR SCT006
     FM311000 11003KT 4SM BR BKN004=

USA.gov is the U.S. government's official web portal to all federal, state and local government web resources and services.